Time;durP1;ratioP1;P1;durP2;ratioP2;P2;SDS_P1;SDS_P2;PMS_P1;PMS_P2;Temp;Humidity;BMP_temperature;BMP_pressure;BME280_temperature;BME280_humidity;BME280_pressure;Samples;Min_cycle;Max_cycle;Signal;HPM_P1;HPM_P2
2022/03/22 00:01:05;;;;;;;27.38;24.15;;;;;;;;;;5033683;28;20429;-79
2022/03/22 00:03:32;;;;;;;30.38;23.30;;;;;;;;;;5036963;28;20954;-79
2022/03/22 00:05:59;;;;;;;31.65;24.42;;;;;;;;;;5026298;28;20435;-79
2022/03/22 00:08:26;;;;;;;31.58;24.27;;;;;;;;;;5034889;28;20418;-79
2022/03/22 00:10:52;;;;;;;32.10;25.33;;;;;;;;;;5034993;28;20478;-79
2022/03/22 00:13:18;;;;;;;32.33;26.45;;;;;;;;;;5033400;28;20927;-79
2022/03/22 00:15:45;;;;;;;33.00;25.42;;;;;;;;;;5038227;28;20431;-79
2022/03/22 00:18:11;;;;;;;32.22;26.25;;;;;;;;;;5036708;28;20439;-78
2022/03/22 00:20:37;;;;;;;31.90;25.40;;;;;;;;;;5031033;28;20429;-78
2022/03/22 00:23:05;;;;;;;27.98;23.27;;;;;;;;;;5037819;28;20468;-79
2022/03/22 00:25:31;;;;;;;33.15;24.70;;;;;;;;;;5037965;28;20884;-79
2022/03/22 00:27:57;;;;;;;29.53;24.37;;;;;;;;;;5038141;28;20411;-79
2022/03/22 00:30:25;;;;;;;30.92;24.33;;;;;;;;;;5036509;28;20429;-79
2022/03/22 00:32:53;;;;;;;31.60;25.60;;;;;;;;;;5034582;28;23734;-79
2022/03/22 00:35:20;;;;;;;32.83;24.08;;;;;;;;;;5039328;28;20462;-79
2022/03/22 00:37:49;;;;;;;30.05;25.05;;;;;;;;;;5038386;28;20435;-79
2022/03/22 00:40:17;;;;;;;30.27;24.30;;;;;;;;;;5041123;28;20988;-79
2022/03/22 00:42:46;;;;;;;32.78;25.98;;;;;;;;;;5040513;28;20516;-79
2022/03/22 00:45:13;;;;;;;30.67;23.75;;;;;;;;;;5042128;28;20444;-79
2022/03/22 00:47:39;;;;;;;30.58;23.17;;;;;;;;;;5041935;28;20500;-78
2022/03/22 00:50:06;;;;;;;30.75;23.70;;;;;;;;;;5039761;28;20434;-79
2022/03/22 00:52:32;;;;;;;31.75;23.63;;;;;;;;;;5039102;28;20466;-79
2022/03/22 00:54:58;;;;;;;33.10;24.60;;;;;;;;;;5040999;28;20465;-79
2022/03/22 00:57:26;;;;;;;31.05;23.80;;;;;;;;;;5039321;28;20503;-79
2022/03/22 01:00:05;;;;;;;30.17;23.75;;;;;;;;;;5038119;28;20425;-78
2022/03/22 01:02:35;;;;;;;32.20;23.92;;;;;;;;;;5030115;28;20438;-79
2022/03/22 01:05:02;;;;;;;30.20;23.20;;;;;;;;;;5040792;28;20436;-78
2022/03/22 01:07:29;;;;;;;27.98;22.83;;;;;;;;;;5037369;28;20989;-78
2022/03/22 01:09:55;;;;;;;31.25;23.38;;;;;;;;;;5036783;28;20518;-79
2022/03/22 01:12:22;;;;;;;28.77;23.30;;;;;;;;;;5039337;28;20437;-79
2022/03/22 01:14:50;;;;;;;31.50;23.77;;;;;;;;;;5038386;28;20434;-79
2022/03/22 01:17:16;;;;;;;30.67;22.30;;;;;;;;;;5039971;28;20575;-79
2022/03/22 01:19:43;;;;;;;28.35;22.92;;;;;;;;;;5035295;28;20434;-76
2022/03/22 01:22:10;;;;;;;30.40;23.92;;;;;;;;;;5039564;28;20427;-78
2022/03/22 01:24:36;;;;;;;29.95;23.60;;;;;;;;;;5037412;28;20422;-79
2022/03/22 01:27:02;;;;;;;30.58;23.95;;;;;;;;;;5039627;28;20490;-78
2022/03/22 01:29:28;;;;;;;30.75;23.40;;;;;;;;;;5035737;28;20426;-79
2022/03/22 01:31:56;;;;;;;27.67;23.40;;;;;;;;;;5038724;28;20582;-79
2022/03/22 01:34:23;;;;;;;31.70;23.67;;;;;;;;;;5041454;28;20434;-79
2022/03/22 01:36:49;;;;;;;28.73;24.30;;;;;;;;;;5041241;28;20506;-78
2022/03/22 01:39:16;;;;;;;29.80;23.83;;;;;;;;;;5036755;28;20437;-79
2022/03/22 01:41:42;;;;;;;28.13;22.90;;;;;;;;;;5037422;28;20431;-76
2022/03/22 01:44:08;;;;;;;28.63;22.48;;;;;;;;;;5034079;28;20426;-79
2022/03/22 01:46:36;;;;;;;33.33;23.10;;;;;;;;;;5039375;28;20431;-78
2022/03/22 01:49:04;;;;;;;28.55;23.30;;;;;;;;;;5036237;28;20435;-79
2022/03/22 01:51:32;;;;;;;32.35;24.02;;;;;;;;;;5038265;28;20440;-79
2022/03/22 01:53:58;;;;;;;30.85;23.90;;;;;;;;;;5035769;28;20462;-78
2022/03/22 01:56:25;;;;;;;28.30;23.48;;;;;;;;;;5040895;28;20471;-78
2022/03/22 01:58:51;;;;;;;28.77;23.27;;;;;;;;;;5043945;28;20458;-78
2022/03/22 02:06:47;;;;;;;30.20;24.27;;;;;;;;;;5037133;28;20468;-78
2022/03/22 02:09:13;;;;;;;31.08;25.27;;;;;;;;;;5050304;22;20449;-82
2022/03/22 02:11:40;;;;;;;31.45;24.50;;;;;;;;;;5043168;28;20537;-80
2022/03/22 02:14:06;;;;;;;30.52;23.60;;;;;;;;;;5040729;28;20932;-80
2022/03/22 02:16:32;;;;;;;29.58;23.95;;;;;;;;;;5040349;28;20426;-80
2022/03/22 02:18:59;;;;;;;30.77;23.87;;;;;;;;;;5033093;28;20991;-80
2022/03/22 02:21:26;;;;;;;29.70;22.45;;;;;;;;;;5025488;28;20908;-80
2022/03/22 02:23:54;;;;;;;27.83;23.25;;;;;;;;;;5023338;28;20516;-79
2022/03/22 02:26:22;;;;;;;29.75;23.33;;;;;;;;;;5025981;28;20772;-79
2022/03/22 02:28:53;;;;;;;30.48;23.83;;;;;;;;;;5024098;28;20423;-82
2022/03/22 02:31:19;;;;;;;28.25;23.65;;;;;;;;;;5025413;28;20956;-80
2022/03/22 02:33:45;;;;;;;30.83;23.25;;;;;;;;;;5022876;28;20469;-79
2022/03/22 02:36:12;;;;;;;30.65;25.02;;;;;;;;;;5025042;28;20862;-80
2022/03/22 02:38:38;;;;;;;32.05;23.75;;;;;;;;;;5020556;28;20437;-82
2022/03/22 02:41:07;;;;;;;31.10;24.83;;;;;;;;;;5019917;28;20920;-82
2022/03/22 02:43:33;;;;;;;30.52;23.63;;;;;;;;;;5019986;28;20425;-80
2022/03/22 02:45:59;;;;;;;30.70;23.20;;;;;;;;;;5020628;28;20489;-79
2022/03/22 02:48:26;;;;;;;29.38;22.42;;;;;;;;;;5018637;28;20433;-79
2022/03/22 02:50:53;;;;;;;30.80;24.60;;;;;;;;;;5020143;28;20440;-79
2022/03/22 02:53:19;;;;;;;30.52;23.73;;;;;;;;;;5021883;28;20439;-79
2022/03/22 02:55:45;;;;;;;33.65;25.60;;;;;;;;;;5021402;28;20439;-78
2022/03/22 02:58:13;;;;;;;29.58;23.95;;;;;;;;;;5016888;28;20429;-79
2022/03/22 03:00:39;;;;;;;33.35;23.65;;;;;;;;;;5021926;28;20443;-79
2022/03/22 03:03:05;;;;;;;29.42;23.55;;;;;;;;;;5018931;28;20997;-79
2022/03/22 03:05:32;;;;;;;29.05;24.13;;;;;;;;;;5020095;28;20431;-79
2022/03/22 03:07:59;;;;;;;29.27;23.00;;;;;;;;;;5020321;28;20417;-77
2022/03/22 03:10:25;;;;;;;31.48;25.45;;;;;;;;;;5021124;28;20494;-79
2022/03/22 03:12:58;;;;;;;29.13;23.45;;;;;;;;;;5017768;28;20407;-79
2022/03/22 03:15:25;;;;;;;33.85;24.52;;;;;;;;;;5020202;28;20922;-80
2022/03/22 03:17:51;;;;;;;28.67;23.83;;;;;;;;;;5018276;28;20410;-79
2022/03/22 03:20:18;;;;;;;29.30;23.38;;;;;;;;;;5019288;28;20430;-78
2022/03/22 03:22:44;;;;;;;33.35;24.08;;;;;;;;;;5020718;28;20435;-78
2022/03/22 03:25:10;;;;;;;30.75;23.85;;;;;;;;;;5041032;28;20429;-80
2022/03/22 03:27:37;;;;;;;31.58;24.00;;;;;;;;;;5039241;28;20467;-80
2022/03/22 03:30:05;;;;;;;31.90;24.70;;;;;;;;;;5039678;28;20417;-79
2022/03/22 03:32:33;;;;;;;32.90;25.50;;;;;;;;;;5038317;28;20429;-80
2022/03/22 03:35:00;;;;;;;31.23;24.58;;;;;;;;;;5019824;28;20424;-79
2022/03/22 03:37:28;;;;;;;33.03;25.70;;;;;;;;;;5018694;28;20471;-79
2022/03/22 03:39:54;;;;;;;29.00;23.98;;;;;;;;;;5017301;28;20514;-79
2022/03/22 03:42:20;;;;;;;30.60;24.65;;;;;;;;;;5020713;28;20636;-80
2022/03/22 03:47:30;;;;;;;31.80;24.30;;;;;;;;;;5019544;28;20477;-79
2022/03/22 03:49:59;;;;;;;32.00;24.27;;;;;;;;;;5017614;28;20432;-78
2022/03/22 03:52:26;;;;;;;31.13;25.17;;;;;;;;;;5018071;28;20505;-79
2022/03/22 03:54:53;;;;;;;30.70;23.42;;;;;;;;;;5019424;28;20435;-79
2022/03/22 03:57:19;;;;;;;31.25;24.65;;;;;;;;;;5019259;28;20540;-79
2022/03/22 03:59:46;;;;;;;28.60;23.02;;;;;;;;;;5019027;28;20919;-79
2022/03/22 04:02:12;;;;;;;28.60;23.40;;;;;;;;;;5019834;28;20942;-80
2022/03/22 04:04:39;;;;;;;30.40;23.90;;;;;;;;;;5016721;28;20435;-79
2022/03/22 04:07:07;;;;;;;30.73;23.83;;;;;;;;;;5017483;28;20469;-80
2022/03/22 04:09:34;;;;;;;31.75;24.98;;;;;;;;;;5021949;28;20461;-79
2022/03/22 04:12:01;;;;;;;31.40;24.83;;;;;;;;;;5021504;28;20442;-80
2022/03/22 04:14:27;;;;;;;32.25;24.10;;;;;;;;;;5023706;28;20430;-79
2022/03/22 04:16:56;;;;;;;33.78;25.08;;;;;;;;;;5024601;28;20511;-80
2022/03/22 04:19:22;;;;;;;33.05;24.75;;;;;;;;;;5022383;28;20941;-80
2022/03/22 04:21:48;;;;;;;30.88;23.50;;;;;;;;;;5021922;28;20959;-80
2022/03/22 04:24:16;;;;;;;29.90;22.75;;;;;;;;;;5019146;28;20426;-79
2022/03/22 04:26:43;;;;;;;31.00;23.30;;;;;;;;;;5021747;28;20490;-77
2022/03/22 04:34:39;;;;;;;29.20;24.13;;;;;;;;;;5025361;28;20975;-79
2022/03/22 04:37:07;;;;;;;31.05;23.52;;;;;;;;;;5023630;28;20522;-80
2022/03/22 04:39:35;;;;;;;30.52;24.02;;;;;;;;;;5021027;28;20427;-79
2022/03/22 04:42:01;;;;;;;29.30;22.98;;;;;;;;;;5020611;28;20442;-79
2022/03/22 04:44:29;;;;;;;36.70;26.30;;;;;;;;;;5020896;28;20423;-80
2022/03/22 04:46:56;;;;;;;31.45;24.33;;;;;;;;;;5023784;28;21016;-79
2022/03/22 04:49:22;;;;;;;31.73;23.70;;;;;;;;;;5018864;28;20464;-80
2022/03/22 04:57:17;;;;;;;30.15;24.58;;;;;;;;;;5040991;28;20414;-80
2022/03/22 04:59:44;;;;;;;31.70;24.27;;;;;;;;;;5040731;28;20426;-78
2022/03/22 05:02:10;;;;;;;28.90;23.35;;;;;;;;;;5041031;28;20428;-80
2022/03/22 05:04:36;;;;;;;29.15;23.10;;;;;;;;;;5041121;28;20430;-79
2022/03/22 05:07:03;;;;;;;32.70;25.05;;;;;;;;;;5041468;28;20919;-79
2022/03/22 05:09:29;;;;;;;30.55;23.50;;;;;;;;;;5040495;28;20429;-79
2022/03/22 05:11:56;;;;;;;30.15;24.08;;;;;;;;;;5038794;28;20847;-79
2022/03/22 05:14:24;;;;;;;35.65;25.77;;;;;;;;;;5041448;28;20430;-80
2022/03/22 05:16:50;;;;;;;32.05;25.25;;;;;;;;;;5041216;28;20445;-79
2022/03/22 05:19:17;;;;;;;30.20;23.40;;;;;;;;;;5039726;28;20429;-79
2022/03/22 05:21:44;;;;;;;31.83;23.73;;;;;;;;;;5041461;28;20868;-79
2022/03/22 05:24:10;;;;;;;34.83;25.10;;;;;;;;;;5040991;28;20475;-79
2022/03/22 05:26:36;;;;;;;31.25;25.17;;;;;;;;;;5039849;28;20945;-80
2022/03/22 05:29:04;;;;;;;32.63;25.30;;;;;;;;;;5038158;28;20439;-79
2022/03/22 05:31:32;;;;;;;32.08;24.30;;;;;;;;;;5037889;28;20433;-79
2022/03/22 05:33:58;;;;;;;30.90;24.30;;;;;;;;;;5038502;28;20426;-80
2022/03/22 05:36:25;;;;;;;31.80;25.13;;;;;;;;;;5040320;28;20547;-79
2022/03/22 05:38:52;;;;;;;33.45;27.25;;;;;;;;;;5036106;28;20477;-78
2022/03/22 05:41:18;;;;;;;30.00;24.13;;;;;;;;;;5039632;28;20926;-80
2022/03/22 05:43:44;;;;;;;35.17;25.77;;;;;;;;;;5041545;28;20836;-78
2022/03/22 05:46:11;;;;;;;34.72;26.48;;;;;;;;;;5040638;28;20435;-79
2022/03/22 05:48:39;;;;;;;34.97;27.10;;;;;;;;;;5039810;28;20489;-80
2022/03/22 05:51:05;;;;;;;40.60;26.77;;;;;;;;;;5036671;28;20516;-78
2022/03/22 05:53:31;;;;;;;31.45;25.35;;;;;;;;;;5037233;28;20993;-78
2022/03/22 05:55:58;;;;;;;33.25;25.63;;;;;;;;;;5040194;28;20435;-84
2022/03/22 05:58:24;;;;;;;32.22;25.63;;;;;;;;;;5035527;28;20543;-84
2022/03/22 06:00:50;;;;;;;33.60;25.25;;;;;;;;;;5038686;28;20437;-83
2022/03/22 06:03:17;;;;;;;32.60;26.30;;;;;;;;;;5036609;28;20492;-80
2022/03/22 06:05:44;;;;;;;32.10;24.13;;;;;;;;;;5040435;28;20419;-81
2022/03/22 06:08:10;;;;;;;31.55;25.27;;;;;;;;;;5041483;28;20424;-79
2022/03/22 06:10:37;;;;;;;33.42;25.10;;;;;;;;;;5042052;28;20433;-80
2022/03/22 06:13:04;;;;;;;30.52;24.02;;;;;;;;;;5043408;28;20413;-81
2022/03/22 06:15:31;;;;;;;31.65;24.88;;;;;;;;;;5045700;28;20479;-80
2022/03/22 06:17:59;;;;;;;35.20;26.52;;;;;;;;;;5043086;28;20484;-79
2022/03/22 06:20:26;;;;;;;33.80;25.38;;;;;;;;;;5041679;28;20512;-80
2022/03/22 06:22:55;;;;;;;32.47;25.35;;;;;;;;;;5044079;28;20420;-80
2022/03/22 06:25:21;;;;;;;34.08;25.23;;;;;;;;;;5042358;28;20429;-81
2022/03/22 06:27:48;;;;;;;32.60;25.98;;;;;;;;;;5042370;28;20520;-80
2022/03/22 06:30:15;;;;;;;34.83;24.67;;;;;;;;;;5040412;28;20443;-79
2022/03/22 06:32:42;;;;;;;32.42;25.70;;;;;;;;;;5043751;28;20430;-80
2022/03/22 06:35:10;;;;;;;33.60;25.45;;;;;;;;;;5039698;28;20470;-80
2022/03/22 06:37:36;;;;;;;33.22;25.33;;;;;;;;;;5041703;28;20431;-81
2022/03/22 06:40:05;;;;;;;39.30;26.55;;;;;;;;;;5039900;28;20490;-80
2022/03/22 06:42:31;;;;;;;35.10;26.58;;;;;;;;;;5040481;28;20481;-81
2022/03/22 06:44:57;;;;;;;35.70;26.95;;;;;;;;;;5040943;28;20487;-81
2022/03/22 06:47:23;;;;;;;35.60;26.60;;;;;;;;;;5040807;28;20797;-81
2022/03/22 06:49:49;;;;;;;35.95;27.13;;;;;;;;;;5040151;28;20433;-80
2022/03/22 06:52:16;;;;;;;33.70;25.67;;;;;;;;;;5040373;28;20434;-81
2022/03/22 06:54:42;;;;;;;35.80;27.20;;;;;;;;;;5041078;28;20990;-79
2022/03/22 06:57:10;;;;;;;31.45;24.90;;;;;;;;;;5042136;28;20431;-81
2022/03/22 06:59:36;;;;;;;35.60;26.02;;;;;;;;;;5038387;28;20421;-81
2022/03/22 07:02:04;;;;;;;31.25;24.17;;;;;;;;;;5042110;28;20439;-81
2022/03/22 07:04:31;;;;;;;32.83;25.02;;;;;;;;;;5043771;28;20492;-80
2022/03/22 07:06:57;;;;;;;34.25;25.25;;;;;;;;;;5043471;28;20423;-80
2022/03/22 07:09:23;;;;;;;35.65;25.42;;;;;;;;;;5041588;28;20773;-81
2022/03/22 07:11:55;;;;;;;36.90;26.43;;;;;;;;;;5042400;28;20968;-81
2022/03/22 07:14:23;;;;;;;34.85;25.88;;;;;;;;;;5040267;28;20461;-80
2022/03/22 07:16:49;;;;;;;34.33;25.90;;;;;;;;;;5042251;28;20931;-80
2022/03/22 07:19:16;;;;;;;42.55;26.58;;;;;;;;;;5039266;28;20452;-81
2022/03/22 07:21:42;;;;;;;36.88;25.45;;;;;;;;;;5042105;28;20429;-79
2022/03/22 07:24:08;;;;;;;37.95;25.17;;;;;;;;;;5044022;28;20429;-81
2022/03/22 07:26:34;;;;;;;38.88;26.10;;;;;;;;;;5042502;28;20433;-80
2022/03/22 07:29:01;;;;;;;39.50;26.75;;;;;;;;;;5038765;28;20455;-81
2022/03/22 07:31:29;;;;;;;44.13;26.33;;;;;;;;;;5042726;28;20447;-80
2022/03/22 07:33:56;;;;;;;38.55;26.15;;;;;;;;;;5041086;28;20414;-80
2022/03/22 07:36:22;;;;;;;37.13;25.77;;;;;;;;;;5042284;28;20440;-81
2022/03/22 07:38:48;;;;;;;42.83;27.55;;;;;;;;;;5041111;28;20427;-81
2022/03/22 07:41:14;;;;;;;43.57;25.53;;;;;;;;;;5043726;28;20437;-81
2022/03/22 07:43:41;;;;;;;38.05;27.00;;;;;;;;;;5038949;28;20427;-81
2022/03/22 07:46:07;;;;;;;37.75;25.27;;;;;;;;;;5042233;28;20517;-81
2022/03/22 07:48:35;;;;;;;45.75;27.17;;;;;;;;;;5042057;28;20421;-80
2022/03/22 07:53:45;;;;;;;34.88;25.52;;;;;;;;;;5043146;28;20416;-80
2022/03/22 07:56:11;;;;;;;40.30;25.57;;;;;;;;;;5040115;28;20490;-80
2022/03/22 07:58:38;;;;;;;35.95;25.92;;;;;;;;;;5039854;28;20423;-81
2022/03/22 08:01:04;;;;;;;34.80;24.60;;;;;;;;;;5041572;28;20875;-81
2022/03/22 08:03:31;;;;;;;36.67;25.33;;;;;;;;;;5038257;28;21040;-79
2022/03/22 08:06:00;;;;;;;37.63;26.53;;;;;;;;;;5042398;28;20497;-81
2022/03/22 08:08:26;;;;;;;36.38;24.88;;;;;;;;;;5039948;28;20775;-81
2022/03/22 08:10:52;;;;;;;33.83;25.17;;;;;;;;;;5070681;23;20431;-84
2022/03/22 08:13:18;;;;;;;36.72;25.25;;;;;;;;;;5060213;28;20444;-84
2022/03/22 08:15:45;;;;;;;37.50;25.87;;;;;;;;;;5060648;28;20438;-83
2022/03/22 08:18:11;;;;;;;31.60;23.65;;;;;;;;;;5054726;28;20425;-83
2022/03/22 08:20:38;;;;;;;34.10;25.50;;;;;;;;;;5029198;28;20444;-83
2022/03/22 08:23:06;;;;;;;35.20;25.70;;;;;;;;;;5024810;28;20442;-83
2022/03/22 08:25:34;;;;;;;33.67;25.20;;;;;;;;;;5024258;28;20435;-83
2022/03/22 08:28:01;;;;;;;31.85;25.48;;;;;;;;;;5024421;28;20916;-83
2022/03/22 08:30:28;;;;;;;33.15;25.50;;;;;;;;;;5024132;28;20427;-83
2022/03/22 08:32:56;;;;;;;33.25;26.38;;;;;;;;;;5033393;28;20412;-82
2022/03/22 08:35:23;;;;;;;35.15;25.08;;;;;;;;;;5024160;28;20426;-83
2022/03/22 08:37:50;;;;;;;35.38;26.67;;;;;;;;;;5023084;28;20475;-79
2022/03/22 08:40:17;;;;;;;36.13;25.80;;;;;;;;;;5021795;28;20504;-81
2022/03/22 08:42:44;;;;;;;35.28;25.55;;;;;;;;;;5021610;28;20451;-82
2022/03/22 08:45:12;;;;;;;38.53;28.20;;;;;;;;;;5019749;28;20438;-82
2022/03/22 08:47:40;;;;;;;33.70;26.00;;;;;;;;;;5020733;28;20566;-81
2022/03/22 08:50:07;;;;;;;30.63;25.02;;;;;;;;;;5023151;28;20440;-81
2022/03/22 08:52:35;;;;;;;35.23;27.30;;;;;;;;;;5022369;28;20451;-83
2022/03/22 08:55:01;;;;;;;35.60;26.70;;;;;;;;;;5026194;28;20461;-82
2022/03/22 08:57:29;;;;;;;36.08;26.88;;;;;;;;;;5027698;28;20438;-83
2022/03/22 08:59:55;;;;;;;34.88;26.73;;;;;;;;;;5024386;28;20435;-83
2022/03/22 09:02:21;;;;;;;31.52;24.30;;;;;;;;;;5025086;28;20444;-82
2022/03/22 09:07:31;;;;;;;33.20;26.08;;;;;;;;;;5026527;28;20407;-83
2022/03/22 09:09:57;;;;;;;34.78;25.48;;;;;;;;;;5024375;28;20479;-81
2022/03/22 09:12:24;;;;;;;33.25;26.80;;;;;;;;;;5026688;28;20427;-85
2022/03/22 09:14:53;;;;;;;32.45;25.27;;;;;;;;;;5025929;28;20424;-81
2022/03/22 09:17:19;;;;;;;30.55;25.23;;;;;;;;;;5026917;28;20500;-83
2022/03/22 09:19:45;;;;;;;32.78;25.70;;;;;;;;;;5024131;28;20433;-81
2022/03/22 09:22:12;;;;;;;33.95;25.77;;;;;;;;;;5028549;28;20425;-82
2022/03/22 09:24:38;;;;;;;32.25;26.10;;;;;;;;;;5026154;28;20503;-81
2022/03/22 09:27:04;;;;;;;34.65;26.90;;;;;;;;;;5025733;28;20902;-83
2022/03/22 09:29:31;;;;;;;33.15;26.58;;;;;;;;;;5023693;28;20508;-82
2022/03/22 09:31:58;;;;;;;32.40;25.67;;;;;;;;;;5025267;28;20427;-82
2022/03/22 09:34:25;;;;;;;32.45;26.63;;;;;;;;;;5026577;28;20416;-82
2022/03/22 09:36:51;;;;;;;34.05;25.60;;;;;;;;;;5027281;28;20534;-81
2022/03/22 09:39:19;;;;;;;34.60;25.98;;;;;;;;;;5025976;28;20483;-82
2022/03/22 09:41:46;;;;;;;31.67;26.98;;;;;;;;;;5024135;28;20453;-83
2022/03/22 09:44:13;;;;;;;34.22;27.13;;;;;;;;;;5025757;28;20457;-83
2022/03/22 09:46:40;;;;;;;34.73;26.47;;;;;;;;;;5025553;28;20435;-83
2022/03/22 09:49:08;;;;;;;35.47;26.70;;;;;;;;;;5024502;28;20435;-82
2022/03/22 09:51:48;;;;;;;34.65;27.90;;;;;;;;;;5027493;28;20441;-84
2022/03/22 09:54:15;;;;;;;35.28;27.13;;;;;;;;;;5026771;28;20417;-83
2022/03/22 09:56:42;;;;;;;34.25;25.88;;;;;;;;;;5025859;28;20466;-80
2022/03/22 09:59:09;;;;;;;36.80;28.13;;;;;;;;;;5025134;28;20436;-83
2022/03/22 10:01:35;;;;;;;36.63;27.60;;;;;;;;;;5022731;28;20426;-81
2022/03/22 10:04:03;;;;;;;34.00;27.45;;;;;;;;;;5026086;28;20419;-82
2022/03/22 10:06:30;;;;;;;37.08;28.08;;;;;;;;;;5024120;28;20427;-84
2022/03/22 10:08:57;;;;;;;36.93;27.50;;;;;;;;;;5023460;28;20459;-82
2022/03/22 10:11:34;;;;;;;36.25;27.95;;;;;;;;;;5027287;28;20440;-82
2022/03/22 10:14:00;;;;;;;36.23;27.70;;;;;;;;;;5025710;28;20912;-83
2022/03/22 10:16:26;;;;;;;37.67;28.40;;;;;;;;;;5026366;28;20440;-83
2022/03/22 10:18:53;;;;;;;38.15;27.67;;;;;;;;;;5025535;28;20499;-81
2022/03/22 10:21:19;;;;;;;39.00;28.98;;;;;;;;;;5026236;28;20445;-83
2022/03/22 10:23:49;;;;;;;34.10;27.15;;;;;;;;;;5023445;28;20835;-81
2022/03/22 10:26:16;;;;;;;41.58;28.08;;;;;;;;;;5023321;28;20837;-82
2022/03/22 10:28:50;;;;;;;36.88;28.38;;;;;;;;;;5023853;28;20427;-79
2022/03/22 10:31:16;;;;;;;36.13;26.88;;;;;;;;;;5023957;28;21008;-82
2022/03/22 10:33:48;;;;;;;40.50;28.35;;;;;;;;;;5024750;28;20472;-81
2022/03/22 10:36:15;;;;;;;38.92;28.13;;;;;;;;;;5025372;28;20432;-82
2022/03/22 10:38:54;;;;;;;39.88;28.35;;;;;;;;;;5024156;28;20417;-79
2022/03/22 10:41:24;;;;;;;44.45;29.70;;;;;;;;;;5025749;28;20419;-83
2022/03/22 10:44:00;;;;;;;39.15;28.15;;;;;;;;;;5023277;28;20472;-83
2022/03/22 10:46:28;;;;;;;43.03;29.55;;;;;;;;;;5026174;28;20493;-83
2022/03/22 10:49:00;;;;;;;39.75;28.92;;;;;;;;;;5026164;28;20448;-84
2022/03/22 10:51:32;;;;;;;46.13;32.30;;;;;;;;;;5027412;28;20681;-82
2022/03/22 10:53:59;;;;;;;44.00;30.90;;;;;;;;;;5026402;28;20461;-84
2022/03/22 10:56:26;;;;;;;39.80;30.00;;;;;;;;;;5026067;28;20440;-83
2022/03/22 10:58:52;;;;;;;44.10;30.45;;;;;;;;;;5024453;28;20449;-83
2022/03/22 11:01:20;;;;;;;42.38;31.88;;;;;;;;;;5024666;28;20977;-83
2022/03/22 11:03:47;;;;;;;45.67;31.85;;;;;;;;;;5020776;28;20451;-82
2022/03/22 11:06:14;;;;;;;49.83;32.13;;;;;;;;;;5023292;28;20436;-82
2022/03/22 11:08:41;;;;;;;44.40;31.35;;;;;;;;;;5020347;28;20432;-83
2022/03/22 11:11:09;;;;;;;43.63;31.35;;;;;;;;;;5018831;28;20439;-82
2022/03/22 11:13:36;;;;;;;44.13;31.65;;;;;;;;;;5021020;28;20921;-83
2022/03/22 11:16:02;;;;;;;43.60;31.25;;;;;;;;;;5022214;28;20450;-81
2022/03/22 11:18:30;;;;;;;41.42;29.63;;;;;;;;;;5017307;28;20427;-83
2022/03/22 11:20:57;;;;;;;40.30;29.15;;;;;;;;;;5021090;28;20423;-82
2022/03/22 11:23:24;;;;;;;43.20;30.52;;;;;;;;;;5021134;28;20934;-82
2022/03/22 11:25:51;;;;;;;46.30;32.28;;;;;;;;;;5021167;28;20445;-82
2022/03/22 11:28:19;;;;;;;42.88;29.63;;;;;;;;;;5019949;28;20423;-80
2022/03/22 11:30:46;;;;;;;40.17;30.35;;;;;;;;;;5021247;28;20514;-81
2022/03/22 11:35:59;;;;;;;46.30;31.27;;;;;;;;;;5022495;28;20427;-81
2022/03/22 11:38:41;;;;;;;42.83;31.07;;;;;;;;;;5019699;28;20425;-83
2022/03/22 11:44:10;;;;;;;51.67;31.73;;;;;;;;;;5020966;28;21005;-81
2022/03/22 11:46:36;;;;;;;43.30;32.50;;;;;;;;;;5023476;28;20429;-80
2022/03/22 11:49:11;;;;;;;52.95;33.97;;;;;;;;;;5022477;28;20454;-81
2022/03/22 11:51:46;;;;;;;48.40;33.15;;;;;;;;;;5022794;28;20498;-80
2022/03/22 11:54:12;;;;;;;46.72;32.08;;;;;;;;;;5023572;28;20427;-80
2022/03/22 11:56:45;;;;;;;44.17;31.85;;;;;;;;;;5024958;28;20924;-82
2022/03/22 11:59:15;;;;;;;43.38;31.77;;;;;;;;;;5019608;28;20802;-82
2022/03/22 12:01:41;;;;;;;40.92;29.55;;;;;;;;;;5021710;28;21136;-80
2022/03/22 12:04:15;;;;;;;45.03;31.58;;;;;;;;;;5021987;28;20419;-83
2022/03/22 12:06:41;;;;;;;46.75;31.10;;;;;;;;;;5023476;28;20498;-81
2022/03/22 12:09:07;;;;;;;45.30;32.15;;;;;;;;;;5020363;28;20435;-82
2022/03/22 12:11:35;;;;;;;43.75;32.50;;;;;;;;;;5027130;28;20424;-82
2022/03/22 12:14:02;;;;;;;41.97;30.60;;;;;;;;;;5026372;28;20431;-81
2022/03/22 12:16:29;;;;;;;40.50;30.13;;;;;;;;;;5023863;28;20429;-79
2022/03/22 12:18:58;;;;;;;42.78;32.10;;;;;;;;;;5018550;28;20469;-80
2022/03/22 12:21:26;;;;;;;43.53;30.50;;;;;;;;;;5023534;28;20452;-81
2022/03/22 12:23:52;;;;;;;39.83;30.60;;;;;;;;;;5021256;28;20419;-82
2022/03/22 12:26:19;;;;;;;40.43;30.30;;;;;;;;;;5022472;28;20522;-82
2022/03/22 12:28:49;;;;;;;41.95;30.48;;;;;;;;;;5020930;28;20445;-81
2022/03/22 12:31:15;;;;;;;47.20;31.17;;;;;;;;;;5027370;28;20503;-81
2022/03/22 12:33:43;;;;;;;41.67;31.65;;;;;;;;;;5024786;28;20427;-82
2022/03/22 12:36:09;;;;;;;42.90;32.22;;;;;;;;;;5025851;28;20919;-81
2022/03/22 12:38:35;;;;;;;45.58;32.15;;;;;;;;;;5025338;28;20427;-81
2022/03/22 12:41:02;;;;;;;41.35;32.60;;;;;;;;;;5027409;28;20536;-81
2022/03/22 12:43:28;;;;;;;45.60;33.15;;;;;;;;;;5025068;28;20432;-81
2022/03/22 12:45:54;;;;;;;46.13;32.17;;;;;;;;;;5026718;28;20439;-81
2022/03/22 12:48:21;;;;;;;43.40;32.20;;;;;;;;;;5026223;28;20471;-83
2022/03/22 12:50:50;;;;;;;46.88;31.92;;;;;;;;;;5027964;28;20496;-81
2022/03/22 12:53:16;;;;;;;43.92;30.70;;;;;;;;;;5025091;28;20416;-81
2022/03/22 12:55:42;;;;;;;43.10;31.58;;;;;;;;;;5027404;28;20516;-83
2022/03/22 12:58:09;;;;;;;38.40;29.40;;;;;;;;;;5024870;28;20860;-79
2022/03/22 13:00:37;;;;;;;41.30;30.60;;;;;;;;;;5027381;28;20481;-81
2022/03/22 13:03:05;;;;;;;44.47;30.97;;;;;;;;;;5026006;28;20414;-78
2022/03/22 13:05:32;;;;;;;41.60;31.40;;;;;;;;;;5025305;28;20874;-83
2022/03/22 13:07:59;;;;;;;39.78;31.30;;;;;;;;;;5026051;28;20465;-78
2022/03/22 13:13:16;;;;;;;45.13;30.83;;;;;;;;;;5025426;28;20489;-83
2022/03/22 13:15:47;;;;;;;42.20;30.98;;;;;;;;;;5026874;28;20436;-81
2022/03/22 13:18:13;;;;;;;39.58;30.48;;;;;;;;;;5020836;28;20992;-79
2022/03/22 13:20:41;;;;;;;38.13;29.37;;;;;;;;;;5023702;28;20435;-82
2022/03/22 13:23:14;;;;;;;43.25;30.65;;;;;;;;;;5023849;28;20420;-81
2022/03/22 13:25:41;;;;;;;41.88;30.08;;;;;;;;;;5026281;28;20439;-82
2022/03/22 13:28:08;;;;;;;37.33;28.88;;;;;;;;;;5023599;28;20436;-83
2022/03/22 13:30:35;;;;;;;38.95;30.75;;;;;;;;;;5025646;28;20933;-80
2022/03/22 13:33:08;;;;;;;40.13;29.75;;;;;;;;;;5025593;28;20423;-82
2022/03/22 13:35:35;;;;;;;41.38;30.55;;;;;;;;;;5026278;28;20431;-83
2022/03/22 13:38:05;;;;;;;38.13;27.27;;;;;;;;;;5025468;28;20434;-81
2022/03/22 13:40:36;;;;;;;37.95;27.50;;;;;;;;;;5022067;28;20436;-83
2022/03/22 13:43:04;;;;;;;37.17;27.70;;;;;;;;;;5024261;28;20427;-81
2022/03/22 13:45:30;;;;;;;39.28;29.67;;;;;;;;;;5024429;28;20422;-81
2022/03/22 13:47:58;;;;;;;38.42;28.20;;;;;;;;;;5021864;28;20479;-82
2022/03/22 13:50:25;;;;;;;37.20;28.40;;;;;;;;;;5025068;28;20493;-83
2022/03/22 13:53:04;;;;;;;38.75;28.42;;;;;;;;;;5022640;28;20987;-82
2022/03/22 13:55:31;;;;;;;34.45;27.48;;;;;;;;;;5026626;28;20951;-80
2022/03/22 13:58:00;;;;;;;39.65;28.55;;;;;;;;;;5023140;28;20762;-81
2022/03/22 14:00:26;;;;;;;32.80;26.50;;;;;;;;;;5021991;28;20493;-83
2022/03/22 14:02:52;;;;;;;35.00;26.90;;;;;;;;;;5024184;28;20407;-83
2022/03/22 14:05:19;;;;;;;33.03;27.33;;;;;;;;;;5023851;28;20498;-82
2022/03/22 14:07:51;;;;;;;35.20;25.73;;;;;;;;;;5025460;28;20426;-81
2022/03/22 14:12:49;;;;;;;32.15;24.70;;;;;;;;;;5017904;28;20948;-79
2022/03/22 14:15:17;;;;;;;32.95;24.70;;;;;;;;;;5021308;28;20427;-79
2022/03/22 14:17:45;;;;;;;35.20;23.67;;;;;;;;;;5021418;28;20427;-78
2022/03/22 14:20:12;;;;;;;33.38;25.10;;;;;;;;;;5021378;28;20498;-79
2022/03/22 14:22:41;;;;;;;32.58;25.55;;;;;;;;;;5019822;28;20465;-79
2022/03/22 14:25:07;;;;;;;30.27;24.00;;;;;;;;;;5040371;28;20512;-79
2022/03/22 14:27:34;;;;;;;31.05;24.05;;;;;;;;;;5040187;28;20434;-79
2022/03/22 14:30:00;;;;;;;32.38;23.67;;;;;;;;;;5020660;28;20439;-79
2022/03/22 14:32:28;;;;;;;30.65;23.75;;;;;;;;;;5022388;28;20437;-78
2022/03/22 14:37:37;;;;;;;26.40;21.43;;;;;;;;;;4975334;28;20545;-79
2022/03/22 14:40:04;;;;;;;27.25;20.10;;;;;;;;;;5020665;28;20446;-80
2022/03/22 14:42:30;;;;;;;29.10;19.08;;;;;;;;;;5022475;28;20435;-79
2022/03/22 14:44:57;;;;;;;25.73;17.10;;;;;;;;;;5020946;28;20429;-78
2022/03/22 14:47:23;;;;;;;23.77;17.60;;;;;;;;;;5023079;28;20444;-79
2022/03/22 14:49:50;;;;;;;29.88;19.90;;;;;;;;;;5040913;28;20422;-79
2022/03/22 14:55:01;;;;;;;25.13;18.00;;;;;;;;;;5040340;28;20423;-79
2022/03/22 15:00:11;;;;;;;21.70;18.60;;;;;;;;;;5040102;28;20454;-79